Time;durP1;ratioP1;P1;durP2;ratioP2;P2;SDS_P1;SDS_P2;PMS_P1;PMS_P2;Temp;Humidity;BMP_temperature;BMP_pressure;BME280_temperature;BME280_humidity;BME280_pressure;Samples;Min_cycle;Max_cycle;Signal;HPM_P1;HPM_P2
2021/06/27 00:01:35;;;;;;;39.10;28.42;;;15.50;99.90;;;;;;5031491;28;20034;-68
2021/06/27 00:04:01;;;;;;;42.80;28.80;;;15.40;99.90;;;;;;5034560;28;20037;-68
2021/06/27 00:06:26;;;;;;;40.35;27.70;;;15.50;99.90;;;;;;5031952;28;20041;-69
2021/06/27 00:08:52;;;;;;;39.97;28.42;;;15.50;99.90;;;;;;5032114;28;20046;-68
2021/06/27 00:11:19;;;;;;;42.03;28.35;;;15.40;99.90;;;;;;5032642;28;20029;-68
2021/06/27 00:13:47;;;;;;;40.53;26.90;;;15.40;99.90;;;;;;5039081;28;20064;-68
2021/06/27 00:16:13;;;;;;;41.50;28.75;;;15.50;99.90;;;;;;5033021;28;20147;-68
2021/06/27 00:18:40;;;;;;;37.70;27.30;;;15.40;99.90;;;;;;5047192;28;20056;-68
2021/06/27 00:21:11;;;;;;;41.30;28.38;;;15.40;99.90;;;;;;5028838;28;20537;-69
2021/06/27 00:23:41;;;;;;;39.40;26.63;;;15.50;99.90;;;;;;5031433;28;20091;-69
2021/06/27 00:26:10;;;;;;;34.78;26.55;;;15.40;99.90;;;;;;5031177;28;20291;-68
2021/06/27 00:28:36;;;;;;;36.05;26.73;;;15.40;99.90;;;;;;5030280;28;20037;-68
2021/06/27 00:31:03;;;;;;;37.28;27.50;;;15.50;99.90;;;;;;5026447;28;20704;-68
2021/06/27 00:33:29;;;;;;;40.90;27.42;;;15.40;99.90;;;;;;5044933;28;20482;-68
2021/06/27 00:35:55;;;;;;;38.30;27.48;;;15.40;99.90;;;;;;5035692;28;20072;-68
2021/06/27 00:38:23;;;;;;;35.90;26.20;;;15.40;99.90;;;;;;5031504;28;20049;-68
2021/06/27 00:40:49;;;;;;;36.85;26.20;;;15.40;99.90;;;;;;5031285;28;20041;-68
2021/06/27 00:43:15;;;;;;;35.33;26.30;;;15.40;99.90;;;;;;5031225;28;20400;-68
2021/06/27 00:45:41;;;;;;;35.38;25.38;;;15.40;99.90;;;;;;5031113;28;20057;-68
2021/06/27 00:48:07;;;;;;;36.15;26.40;;;15.40;99.90;;;;;;5031167;28;20052;-68
2021/06/27 00:50:44;;;;;;;41.80;27.48;;;15.40;99.90;;;;;;5033429;28;20068;-68
2021/06/27 00:53:10;;;;;;;39.22;26.40;;;15.40;99.90;;;;;;5048249;28;20045;-68
2021/06/27 00:55:37;;;;;;;37.30;26.40;;;15.30;99.90;;;;;;5030959;28;20376;-68
2021/06/27 00:58:04;;;;;;;32.17;24.63;;;15.30;99.90;;;;;;5043600;28;20045;-68
2021/06/27 01:00:39;;;;;;;40.33;27.60;;;15.30;99.90;;;;;;5031147;28;20120;-69
2021/06/27 01:03:05;;;;;;;42.85;27.10;;;15.20;99.90;;;;;;5031127;28;20081;-69
2021/06/27 01:05:34;;;;;;;40.95;25.90;;;15.20;99.90;;;;;;5031003;28;20495;-68
2021/06/27 01:08:00;;;;;;;40.70;28.25;;;15.10;99.90;;;;;;5044317;28;20041;-68
2021/06/27 01:10:26;;;;;;;40.88;26.33;;;15.10;99.90;;;;;;5030944;28;20087;-68
2021/06/27 01:12:53;;;;;;;35.25;24.67;;;15.10;99.90;;;;;;5031126;28;20469;-68
2021/06/27 01:15:20;;;;;;;42.83;26.90;;;15.10;99.90;;;;;;5030893;28;20038;-69
2021/06/27 01:17:48;;;;;;;40.85;26.73;;;15.10;99.90;;;;;;5030468;28;20116;-68
2021/06/27 01:20:20;;;;;;;37.60;26.17;;;15.00;99.90;;;;;;5030067;28;20394;-72
2021/06/27 01:22:46;;;;;;;;;;;15.00;99.90;;;;;;5027687;28;20037;-68
2021/06/27 01:25:20;;;;;;;35.75;24.98;;;15.00;99.90;;;;;;5023526;28;20459;-69
2021/06/27 01:27:46;;;;;;;38.28;25.25;;;15.00;99.90;;;;;;5023968;28;20050;-68
2021/06/27 01:30:13;;;;;;;39.38;25.85;;;15.00;99.90;;;;;;5030374;28;20046;-70
2021/06/27 01:32:41;;;;;;;40.05;26.20;;;15.00;99.90;;;;;;5030472;28;20045;-69
2021/06/27 01:35:12;;;;;;;43.85;27.33;;;15.00;99.90;;;;;;5046067;28;20029;-69
2021/06/27 01:37:44;;;;;;;39.90;27.42;;;14.90;99.90;;;;;;5034978;28;20044;-68
2021/06/27 01:40:12;;;;;;;38.80;25.30;;;14.90;99.90;;;;;;5030849;28;20129;-68
2021/06/27 01:42:38;;;;;;;41.15;26.15;;;14.90;99.90;;;;;;5039903;28;20068;-69
2021/06/27 01:45:21;;;;;;;39.60;26.33;;;14.90;99.90;;;;;;5030832;28;20040;-69
2021/06/27 01:48:01;;;;;;;35.22;24.85;;;14.90;99.90;;;;;;5034533;28;20485;-68
2021/06/27 01:50:27;;;;;;;34.85;23.92;;;15.00;99.90;;;;;;5043669;28;20041;-69
2021/06/27 01:52:54;;;;;;;35.95;25.42;;;14.90;99.90;;;;;;5034365;28;20067;-69
2021/06/27 01:55:21;;;;;;;37.58;25.88;;;15.00;99.90;;;;;;5034436;28;20055;-68
2021/06/27 01:57:47;;;;;;;35.38;24.10;;;15.00;99.90;;;;;;5045945;28;20059;-68
2021/06/27 02:00:13;;;;;;;37.55;25.10;;;15.00;99.90;;;;;;5033769;28;20029;-69
2021/06/27 02:02:39;;;;;;;37.88;24.52;;;14.90;99.90;;;;;;5032986;28;20045;-68
2021/06/27 02:05:06;;;;;;;37.00;24.02;;;15.00;99.90;;;;;;5039230;28;20046;-68
2021/06/27 02:07:33;;;;;;;36.58;24.33;;;15.00;99.90;;;;;;5034336;28;20398;-68
2021/06/27 02:09:58;;;;;;;40.67;27.05;;;14.90;99.90;;;;;;5032851;28;20132;-69
2021/06/27 02:12:24;;;;;;;43.42;26.90;;;15.00;99.90;;;;;;5031229;28;20124;-69
2021/06/27 02:14:50;;;;;;;40.67;26.73;;;14.90;99.90;;;;;;5030583;28;20465;-69
2021/06/27 02:17:15;;;;;;;40.95;25.00;;;14.90;99.90;;;;;;5029358;28;20043;-69
2021/06/27 02:19:51;;;;;;;40.35;26.48;;;14.90;99.90;;;;;;5028704;28;20427;-69
2021/06/27 02:22:17;;;;;;;36.60;24.30;;;14.90;99.90;;;;;;5033987;28;20056;-69
2021/06/27 02:24:43;;;;;;;34.17;23.70;;;14.90;99.90;;;;;;5033952;28;20040;-69
2021/06/27 02:27:10;;;;;;;32.67;22.67;;;14.90;99.90;;;;;;5043370;28;20048;-69
2021/06/27 02:29:36;;;;;;;35.75;24.20;;;14.90;99.90;;;;;;5038413;28;20057;-69
2021/06/27 02:32:04;;;;;;;35.97;24.27;;;14.80;99.90;;;;;;5033128;28;20487;-69
2021/06/27 02:34:30;;;;;;;34.47;23.50;;;14.80;99.90;;;;;;5038635;28;20040;-69
2021/06/27 02:36:58;;;;;;;36.67;22.98;;;14.80;99.90;;;;;;5038595;28;20041;-69
2021/06/27 02:39:24;;;;;;;38.10;24.10;;;14.80;99.90;;;;;;5029140;28;20037;-68
2021/06/27 02:41:51;;;;;;;38.90;23.80;;;14.80;99.90;;;;;;5012767;28;20092;-69
2021/06/27 02:44:17;;;;;;;38.20;23.52;;;14.70;99.90;;;;;;5031803;28;20038;-69
2021/06/27 02:46:44;;;;;;;38.80;24.05;;;14.60;99.90;;;;;;5031624;28;20113;-68
2021/06/27 02:49:30;;;;;;;34.78;23.42;;;14.60;99.90;;;;;;5001651;28;20046;-68
2021/06/27 02:51:55;;;;;;;32.75;21.92;;;14.60;99.90;;;;;;5035049;28;20055;-69
2021/06/27 02:54:22;;;;;;;41.80;23.90;;;14.60;99.90;;;;;;5018980;28;20033;-69
2021/06/27 02:56:48;;;;;;;38.15;22.92;;;14.60;99.90;;;;;;5033021;28;20573;-69
2021/06/27 02:59:14;;;;;;;38.80;22.60;;;14.50;99.90;;;;;;5031915;28;20037;-69
2021/06/27 03:01:40;;;;;;;37.03;22.45;;;14.50;99.90;;;;;;5033077;28;20045;-69
2021/06/27 03:04:06;;;;;;;42.85;24.17;;;14.40;99.90;;;;;;5033091;28;20041;-69
2021/06/27 03:06:34;;;;;;;38.65;24.25;;;14.40;99.90;;;;;;5033120;28;20037;-69
2021/06/27 03:09:00;;;;;;;45.97;25.70;;;14.40;99.90;;;;;;5032852;28;20383;-68
2021/06/27 03:11:25;;;;;;;42.58;24.48;;;14.40;99.90;;;;;;5038835;28;20033;-69
2021/06/27 03:13:53;;;;;;;42.28;25.30;;;14.40;99.90;;;;;;5032708;28;20116;-69
2021/06/27 03:16:19;;;;;;;35.90;22.38;;;14.40;99.90;;;;;;5032295;28;20072;-69
2021/06/27 03:18:45;;;;;;;34.90;22.77;;;14.40;99.90;;;;;;5032144;28;20060;-69
2021/06/27 03:21:11;;;;;;;31.23;21.45;;;14.50;99.90;;;;;;5031863;28;20041;-70
2021/06/27 03:23:37;;;;;;;27.23;20.10;;;14.50;99.90;;;;;;5032456;28;20045;-69
2021/06/27 03:26:03;;;;;;;37.20;22.63;;;14.50;99.90;;;;;;5033034;28;20493;-69
2021/06/27 03:28:34;;;;;;;43.97;25.33;;;14.50;99.90;;;;;;5043699;28;20033;-69
2021/06/27 03:31:00;;;;;;;40.35;25.23;;;14.50;99.90;;;;;;5032436;28;20038;-69
2021/06/27 03:33:26;;;;;;;41.22;24.52;;;14.50;99.90;;;;;;5032568;28;20049;-69
2021/06/27 03:35:53;;;;;;;51.58;26.58;;;14.50;99.90;;;;;;5040654;28;20040;-69
2021/06/27 03:38:26;;;;;;;45.50;25.65;;;14.50;99.90;;;;;;5033905;28;20048;-69
2021/06/27 03:40:52;;;;;;;45.28;25.85;;;14.50;99.90;;;;;;5036927;28;20037;-69
2021/06/27 03:43:19;;;;;;;44.15;26.83;;;14.60;99.90;;;;;;5043997;28;20067;-69
2021/06/27 03:45:45;;;;;;;43.53;26.35;;;14.60;99.90;;;;;;5038128;28;20041;-69
2021/06/27 03:48:11;;;;;;;42.17;26.48;;;14.70;99.90;;;;;;5014082;28;20037;-69
2021/06/27 03:50:37;;;;;;;46.35;26.63;;;14.70;99.90;;;;;;5031894;28;20060;-69
2021/06/27 03:53:03;;;;;;;48.78;27.20;;;14.80;99.90;;;;;;5031762;28;20463;-69
2021/06/27 03:55:30;;;;;;;48.00;27.00;;;14.80;99.90;;;;;;5030904;28;20056;-69
2021/06/27 03:57:56;;;;;;;45.92;26.15;;;14.90;99.90;;;;;;5030599;28;20152;-69
2021/06/27 04:00:22;;;;;;;48.78;26.58;;;14.90;99.90;;;;;;5030866;28;20044;-69
2021/06/27 04:02:48;;;;;;;53.95;29.00;;;15.00;99.90;;;;;;5030853;28;20427;-68
2021/06/27 04:05:14;;;;;;;56.30;29.42;;;15.00;99.90;;;;;;5031471;28;20068;-69
2021/06/27 04:07:42;;;;;;;55.75;29.35;;;15.10;99.90;;;;;;5031383;28;20559;-69
2021/06/27 04:10:08;;;;;;;55.67;28.27;;;15.10;99.90;;;;;;5031305;28;20069;-69
2021/06/27 04:12:36;;;;;;;54.63;29.15;;;15.20;99.90;;;;;;5030923;28;20037;-69
2021/06/27 04:15:07;;;;;;;61.15;31.55;;;15.30;99.90;;;;;;5042932;28;20076;-68
2021/06/27 04:17:33;;;;;;;62.22;30.45;;;15.30;99.90;;;;;;5037912;28;20037;-69
2021/06/27 04:20:01;;;;;;;67.18;30.85;;;15.40;99.90;;;;;;5031403;28;20045;-69
2021/06/27 04:22:27;;;;;;;61.42;31.23;;;15.50;99.90;;;;;;5031264;28;20049;-69
2021/06/27 04:24:53;;;;;;;57.15;29.55;;;15.50;99.90;;;;;;5031350;28;20673;-69
2021/06/27 04:27:19;;;;;;;65.72;33.13;;;15.60;99.90;;;;;;5031181;28;20037;-69
2021/06/27 04:29:45;;;;;;;68.13;32.28;;;15.60;99.90;;;;;;5031182;28;20037;-69
2021/06/27 04:32:10;;;;;;;69.88;31.92;;;15.70;99.90;;;;;;5030709;28;20053;-69
2021/06/27 04:34:36;;;;;;;58.83;28.52;;;15.70;99.90;;;;;;5013439;28;20037;-69
2021/06/27 04:37:02;;;;;;;66.95;30.67;;;15.70;99.90;;;;;;5041131;28;20056;-69
2021/06/27 04:39:28;;;;;;;67.15;33.00;;;15.80;99.90;;;;;;5018697;28;20467;-68
2021/06/27 04:41:54;;;;;;;75.85;33.55;;;15.80;99.90;;;;;;5031457;28;20048;-68
2021/06/27 04:44:22;;;;;;;66.95;32.35;;;15.80;99.90;;;;;;5030944;28;20053;-69
2021/06/27 04:46:47;;;;;;;74.50;34.53;;;15.90;99.90;;;;;;5033330;28;20539;-70
2021/06/27 04:49:13;;;;;;;65.82;32.15;;;15.90;99.90;;;;;;5037718;28;20486;-69
2021/06/27 04:51:40;;;;;;;67.53;33.35;;;16.00;99.90;;;;;;5028925;28;20136;-69
2021/06/27 04:54:05;;;;;;;63.88;33.28;;;15.90;99.90;;;;;;5027701;28;20128;-69
2021/06/27 04:56:31;;;;;;;64.00;32.33;;;16.00;99.90;;;;;;5030766;28;20216;-69
2021/06/27 04:58:57;;;;;;;64.05;31.88;;;16.00;99.90;;;;;;5031222;28;20103;-70
2021/06/27 05:01:22;;;;;;;55.25;30.73;;;16.00;99.90;;;;;;5030228;28;20033;-69
2021/06/27 05:03:48;;;;;;;51.95;29.88;;;16.10;99.90;;;;;;5029961;28;20041;-69
2021/06/27 05:06:13;;;;;;;50.53;28.50;;;16.10;99.90;;;;;;5037724;28;20045;-69
2021/06/27 05:08:39;;;;;;;50.47;28.70;;;16.20;99.90;;;;;;5043402;28;20046;-69
2021/06/27 05:11:05;;;;;;;46.17;28.75;;;16.20;99.90;;;;;;5031004;28;20037;-69
2021/06/27 05:13:30;;;;;;;45.67;28.55;;;16.40;99.90;;;;;;5030900;28;20052;-69
2021/06/27 05:15:56;;;;;;;48.90;28.25;;;16.40;99.90;;;;;;5030814;28;20030;-69
2021/06/27 05:18:23;;;;;;;41.63;27.75;;;16.50;99.90;;;;;;5030304;28;20041;-69
2021/06/27 05:20:49;;;;;;;45.53;27.27;;;16.50;99.90;;;;;;5029827;28;20034;-69
2021/06/27 05:23:16;;;;;;;38.15;25.73;;;16.60;99.90;;;;;;5052601;28;20043;-70
2021/06/27 05:25:42;;;;;;;42.58;27.33;;;16.70;99.90;;;;;;5044445;28;20116;-69
2021/06/27 05:28:07;;;;;;;40.70;26.92;;;16.70;99.90;;;;;;5040319;28;20084;-69
2021/06/27 05:30:33;;;;;;;39.65;27.05;;;16.80;99.90;;;;;;5034498;28;20038;-70
2021/06/27 05:33:00;;;;;;;40.05;26.45;;;16.90;99.90;;;;;;5034884;28;20080;-69
2021/06/27 05:35:26;;;;;;;40.40;26.15;;;16.90;99.90;;;;;;5034839;28;20037;-69
2021/06/27 05:37:52;;;;;;;37.55;25.52;;;16.90;99.90;;;;;;5042348;28;20144;-69
2021/06/27 05:40:18;;;;;;;36.58;26.17;;;16.90;99.90;;;;;;5051850;28;20534;-69
2021/06/27 05:42:44;;;;;;;35.70;26.10;;;17.00;99.90;;;;;;5024494;28;20463;-69
2021/06/27 05:45:10;;;;;;;34.17;25.08;;;17.10;99.90;;;;;;5043243;28;20091;-69
2021/06/27 05:47:36;;;;;;;33.05;24.63;;;17.20;99.90;;;;;;5033783;28;20041;-69
2021/06/27 05:50:02;;;;;;;32.42;23.30;;;17.40;99.90;;;;;;5034076;28;20041;-69
2021/06/27 05:52:28;;;;;;;30.83;23.05;;;17.50;99.90;;;;;;5033645;28;20048;-69
2021/06/27 05:54:54;;;;;;;31.02;23.27;;;17.60;99.90;;;;;;5023874;28;20049;-69
2021/06/27 05:57:21;;;;;;;32.38;24.20;;;17.60;99.90;;;;;;5040384;28;20450;-69
2021/06/27 05:59:48;;;;;;;25.80;21.58;;;17.80;99.90;;;;;;5037374;28;20117;-69
2021/06/27 06:02:13;;;;;;;27.98;21.63;;;18.00;99.90;;;;;;5016586;28;20080;-69
2021/06/27 06:04:39;;;;;;;26.17;21.60;;;18.20;99.90;;;;;;5034496;28;20456;-70
2021/06/27 06:07:05;;;;;;;28.02;22.50;;;18.40;99.90;;;;;;5033887;28;20041;-69
2021/06/27 06:09:31;;;;;;;27.38;21.33;;;18.30;99.90;;;;;;5034256;28;20040;-69
2021/06/27 06:11:56;;;;;;;26.13;19.90;;;18.50;99.90;;;;;;5034105;28;20049;-69
2021/06/27 06:14:22;;;;;;;25.17;20.65;;;18.80;99.90;;;;;;5031844;28;20387;-69
2021/06/27 06:16:47;;;;;;;21.17;18.95;;;18.90;99.90;;;;;;5043182;28;20515;-69
2021/06/27 06:19:17;;;;;;;21.77;19.58;;;19.20;99.90;;;;;;5033309;28;20029;-69
2021/06/27 06:21:43;;;;;;;22.15;19.17;;;19.90;99.90;;;;;;5033780;28;20386;-69
2021/06/27 06:24:08;;;;;;;25.60;20.35;;;20.10;99.90;;;;;;5033541;28;20049;-69
2021/06/27 06:26:34;;;;;;;21.98;18.67;;;19.70;99.90;;;;;;5040516;28;20048;-69
2021/06/27 06:29:00;;;;;;;21.50;19.20;;;20.10;99.90;;;;;;5037946;28;20044;-69
2021/06/27 06:31:25;;;;;;;21.05;18.90;;;20.60;99.90;;;;;;5026515;28;20045;-69
2021/06/27 06:33:51;;;;;;;21.50;17.88;;;20.80;99.90;;;;;;5033294;28;20033;-69
2021/06/27 06:36:17;;;;;;;20.67;18.42;;;20.80;99.90;;;;;;5032747;28;20110;-70
2021/06/27 06:38:43;;;;;;;17.95;15.93;;;20.80;99.90;;;;;;5032447;28;20045;-69
2021/06/27 06:41:09;;;;;;;18.75;16.65;;;21.50;99.90;;;;;;5032530;28;20056;-70
2021/06/27 06:43:34;;;;;;;22.45;19.00;;;22.40;99.60;;;;;;5023951;28;20088;-69
2021/06/27 06:46:02;;;;;;;19.60;16.58;;;22.90;97.50;;;;;;5024424;28;20087;-69
2021/06/27 06:48:27;;;;;;;18.63;15.00;;;24.00;96.50;;;;;;5025893;28;20061;-69
2021/06/27 06:50:53;;;;;;;18.80;16.85;;;24.00;95.00;;;;;;5014770;28;20073;-69
2021/06/27 06:53:19;;;;;;;19.20;17.08;;;24.00;95.50;;;;;;5033276;28;20112;-68
2021/06/27 06:55:45;;;;;;;17.58;15.88;;;23.30;96.40;;;;;;5043661;28;20421;-70
2021/06/27 06:58:11;;;;;;;18.58;16.80;;;22.40;98.00;;;;;;5043008;28;20040;-69
2021/06/27 07:00:36;;;;;;;20.08;17.20;;;21.80;98.70;;;;;;5033528;28;20418;-69
2021/06/27 07:03:03;;;;;;;16.73;14.93;;;21.80;99.10;;;;;;5041570;28;20037;-69
2021/06/27 07:05:28;;;;;;;21.83;16.38;;;22.10;99.40;;;;;;5038587;28;20505;-69
2021/06/27 07:07:54;;;;;;;16.88;15.18;;;22.40;99.10;;;;;;5048731;28;20040;-69
2021/06/27 07:10:20;;;;;;;17.45;15.85;;;23.60;97.60;;;;;;5076630;22;20052;-68
2021/06/27 07:12:46;;;;;;;16.48;14.77;;;23.10;97.00;;;;;;5091678;28;20040;-67
2021/06/27 07:15:13;;;;;;;17.73;16.02;;;22.70;98.10;;;;;;5092884;28;20036;-68
2021/06/27 07:17:39;;;;;;;16.63;14.93;;;23.40;97.00;;;;;;5093209;28;20047;-68
2021/06/27 07:20:07;;;;;;;15.15;13.50;;;22.50;97.90;;;;;;5093263;28;20036;-68
2021/06/27 07:22:33;;;;;;;15.43;13.82;;;23.00;97.40;;;;;;5092919;28;20514;-68
2021/06/27 07:24:58;;;;;;;15.43;13.82;;;23.60;96.80;;;;;;5093220;28;20040;-68
2021/06/27 07:27:24;;;;;;;14.75;12.90;;;23.40;96.80;;;;;;5092789;28;20156;-68
2021/06/27 07:29:50;;;;;;;16.27;14.57;;;23.50;96.60;;;;;;5091648;28;20055;-68
2021/06/27 07:32:16;;;;;;;15.70;14.07;;;24.00;95.70;;;;;;5092782;28;20040;-67
2021/06/27 07:34:41;;;;;;;16.38;14.68;;;24.40;94.60;;;;;;5092865;28;20081;-67
2021/06/27 07:37:08;;;;;;;15.85;14.27;;;24.40;95.20;;;;;;5092648;28;20036;-67
2021/06/27 07:39:34;;;;;;;15.52;14.02;;;24.90;95.20;;;;;;5089479;28;20028;-68
2021/06/27 07:41:59;;;;;;;15.10;13.68;;;24.10;95.10;;;;;;5091205;28;20097;-67
2021/06/27 07:44:25;;;;;;;15.30;12.93;;;24.20;95.20;;;;;;5090555;28;20032;-68
2021/06/27 07:46:52;;;;;;;15.27;13.77;;;25.00;94.50;;;;;;5082546;28;20098;-68
2021/06/27 07:49:18;;;;;;;15.80;14.30;;;25.10;94.30;;;;;;5091494;28;20047;-68
2021/06/27 07:51:44;;;;;;;15.35;13.85;;;24.10;94.70;;;;;;5094641;28;20047;-67
2021/06/27 07:54:09;;;;;;;16.65;14.45;;;24.40;94.80;;;;;;5092550;28;20758;-67
2021/06/27 07:56:35;;;;;;;14.02;12.73;;;24.40;94.70;;;;;;5094134;28;20116;-68
2021/06/27 07:59:01;;;;;;;15.23;13.73;;;25.20;94.40;;;;;;5073714;28;20093;-68
2021/06/27 08:01:26;;;;;;;14.40;13.13;;;25.30;93.40;;;;;;5087621;28;20069;-68
2021/06/27 08:03:52;;;;;;;13.77;12.35;;;25.20;93.90;;;;;;5084352;28;20037;-68
2021/06/27 08:06:18;;;;;;;14.38;13.00;;;25.70;93.40;;;;;;5079112;28;20058;-68
2021/06/27 08:08:44;;;;;;;14.50;13.07;;;26.30;91.90;;;;;;5083562;28;20036;-68
2021/06/27 08:11:10;;;;;;;14.15;12.82;;;26.70;91.10;;;;;;5081833;28;20109;-68
2021/06/27 08:13:36;;;;;;;15.00;13.60;;;26.50;91.70;;;;;;5073870;28;20089;-68
2021/06/27 08:16:02;;;;;;;15.23;13.82;;;25.00;93.60;;;;;;5090504;28;20040;-68
2021/06/27 08:18:27;;;;;;;14.38;12.98;;;25.20;93.20;;;;;;5091548;28;20068;-68
2021/06/27 08:20:53;;;;;;;15.30;13.70;;;24.40;95.20;;;;;;5091697;28;20063;-67
2021/06/27 08:23:19;;;;;;;16.48;13.93;;;24.30;95.10;;;;;;5091695;28;20485;-68
2021/06/27 08:25:45;;;;;;;15.30;13.70;;;23.30;96.50;;;;;;5089022;28;20452;-68
2021/06/27 08:28:10;;;;;;;14.68;13.27;;;23.50;96.60;;;;;;5088114;28;20131;-69
2021/06/27 08:30:37;;;;;;;15.65;14.15;;;23.70;96.80;;;;;;5082166;28;20043;-68
2021/06/27 08:33:03;;;;;;;15.30;13.80;;;22.80;97.80;;;;;;5078544;28;20044;-68
2021/06/27 08:35:29;;;;;;;14.45;13.05;;;23.10;97.70;;;;;;5087900;28;20046;-67
2021/06/27 08:37:55;;;;;;;16.73;15.13;;;23.20;96.70;;;;;;5091492;28;20040;-68
2021/06/27 08:40:22;;;;;;;16.85;15.15;;;22.60;97.70;;;;;;5085792;28;20043;-68
2021/06/27 08:42:49;;;;;;;15.30;13.80;;;22.50;98.30;;;;;;5087540;28;20059;-68
2021/06/27 08:45:19;;;;;;;16.00;14.43;;;22.40;98.90;;;;;;5072718;28;20489;-67
2021/06/27 08:47:46;;;;;;;17.10;15.48;;;22.40;98.60;;;;;;5086209;28;20040;-68
2021/06/27 08:50:16;;;;;;;14.68;13.23;;;22.40;98.70;;;;;;5072217;28;20043;-67
2021/06/27 08:52:43;;;;;;;17.10;15.50;;;23.00;96.80;;;;;;5089885;28;20051;-67
2021/06/27 08:55:10;;;;;;;16.48;14.85;;;22.50;98.00;;;;;;5088899;28;20036;-67
2021/06/27 08:57:35;;;;;;;16.25;14.73;;;22.30;99.20;;;;;;5090545;28;20104;-67
2021/06/27 09:00:03;;;;;;;17.35;15.40;;;22.60;98.30;;;;;;5088574;28;20583;-67
2021/06/27 09:02:29;;;;;;;17.23;15.65;;;22.30;99.20;;;;;;5090619;28;20510;-68
2021/06/27 09:04:55;;;;;;;17.35;15.55;;;22.30;98.90;;;;;;5089433;28;20128;-69
2021/06/27 09:07:40;;;;;;;17.05;15.45;;;22.20;98.90;;;;;;5090458;28;20115;-68
2021/06/27 09:10:14;;;;;;;16.85;15.32;;;21.90;99.90;;;;;;5084353;28;20048;-68
2021/06/27 09:12:51;;;;;;;15.85;14.35;;;21.70;99.90;;;;;;5065233;28;20093;-68
2021/06/27 09:15:34;;;;;;;18.20;16.48;;;21.80;99.90;;;;;;5056539;28;20400;-67
2021/06/27 09:18:03;;;;;;;16.95;15.15;;;22.20;99.00;;;;;;5076005;28;20039;-67
2021/06/27 09:20:30;;;;;;;16.38;14.70;;;22.50;97.70;;;;;;5089544;28;20036;-67
2021/06/27 09:22:57;;;;;;;17.90;16.20;;;22.70;97.80;;;;;;5089535;28;20040;-67
2021/06/27 09:25:28;;;;;;;18.75;15.82;;;22.50;98.80;;;;;;5089450;28;20063;-68
2021/06/27 09:28:04;;;;;;;16.60;15.00;;;22.40;99.20;;;;;;5085546;28;20059;-68
2021/06/27 09:30:35;;;;;;;18.45;16.60;;;22.70;99.10;;;;;;5089381;28;20032;-68
2021/06/27 09:33:04;;;;;;;17.60;16.00;;;22.60;98.50;;;;;;5089634;28;20440;-69
2021/06/27 09:35:43;;;;;;;18.98;17.10;;;22.50;99.30;;;;;;5089210;28;20557;-68
2021/06/27 09:38:30;;;;;;;17.23;15.63;;;22.70;98.40;;;;;;5090358;28;20040;-68
2021/06/27 09:40:58;;;;;;;18.05;16.25;;;23.00;97.60;;;;;;5088294;28;20071;-69
2021/06/27 09:43:24;;;;;;;16.65;15.05;;;22.80;98.50;;;;;;5066146;28;20024;-68
2021/06/27 09:46:11;;;;;;;17.63;15.73;;;22.60;98.40;;;;;;5078250;28;20044;-68
2021/06/27 09:48:53;;;;;;;17.25;15.60;;;22.90;98.00;;;;;;5089699;28;20117;-68
2021/06/27 09:51:21;;;;;;;16.95;15.43;;;22.80;98.50;;;;;;5084525;28;20118;-68
2021/06/27 09:53:47;;;;;;;16.58;14.93;;;23.10;98.00;;;;;;5089374;28;20496;-68
2021/06/27 09:56:14;;;;;;;16.27;14.70;;;23.40;97.00;;;;;;5089083;28;20040;-68
2021/06/27 09:58:53;;;;;;;15.57;14.00;;;23.50;97.50;;;;;;5089551;28;20032;-68
2021/06/27 10:01:23;;;;;;;15.95;14.35;;;23.60;96.20;;;;;;5090114;28;20043;-68
2021/06/27 10:03:54;;;;;;;15.50;14.00;;;23.50;97.40;;;;;;5090234;28;20040;-68
2021/06/27 10:06:22;;;;;;;17.77;15.98;;;23.30;97.30;;;;;;5089946;28;20032;-67
2021/06/27 10:08:47;;;;;;;15.40;13.68;;;23.10;97.90;;;;;;5093780;28;20043;-67
2021/06/27 10:11:17;;;;;;;16.60;14.88;;;23.30;97.80;;;;;;5093375;28;20109;-67
2021/06/27 10:13:46;;;;;;;15.77;14.27;;;23.40;98.00;;;;;;5092317;28;20067;-68
2021/06/27 10:16:21;;;;;;;17.08;14.95;;;23.60;97.50;;;;;;5093066;28;20043;-67
2021/06/27 10:18:47;;;;;;;15.90;14.40;;;23.90;96.30;;;;;;5093821;28;20032;-68
2021/06/27 10:21:13;;;;;;;14.45;13.05;;;23.80;96.60;;;;;;5093730;28;20669;-67
2021/06/27 10:23:40;;;;;;;14.07;12.68;;;23.50;97.50;;;;;;5092870;28;20072;-68
2021/06/27 10:26:06;;;;;;;15.07;13.43;;;23.80;95.90;;;;;;5085503;28;20119;-68
2021/06/27 10:28:33;;;;;;;15.15;13.55;;;24.10;95.20;;;;;;5090391;28;20154;-68
2021/06/27 10:31:00;;;;;;;15.98;14.38;;;23.90;96.60;;;;;;5091149;28;20040;-67
2021/06/27 10:33:26;;;;;;;14.50;13.10;;;23.80;96.70;;;;;;5092966;28;20119;-68
2021/06/27 10:35:52;;;;;;;15.75;14.15;;;24.20;95.20;;;;;;5093196;28;20038;-68
2021/06/27 10:38:30;;;;;;;14.32;12.93;;;23.80;97.00;;;;;;5093477;28;20036;-68
2021/06/27 10:40:58;;;;;;;14.68;13.18;;;24.20;95.80;;;;;;5092600;28;20044;-67
2021/06/27 10:43:25;;;;;;;13.48;12.18;;;24.30;96.00;;;;;;5092086;28;20110;-68
2021/06/27 10:45:53;;;;;;;16.20;14.60;;;24.50;95.60;;;;;;5092823;28;20063;-68
2021/06/27 10:48:35;;;;;;;13.55;12.18;;;23.90;96.00;;;;;;5090396;28;20047;-67
2021/06/27 10:51:12;;;;;;;15.52;14.13;;;24.40;95.60;;;;;;5076392;28;20385;-68
2021/06/27 10:54:09;;;;;;;14.98;13.48;;;24.10;95.60;;;;;;5080570;28;20047;-68
2021/06/27 10:56:56;;;;;;;14.80;13.40;;;23.70;96.30;;;;;;5092858;28;20032;-68
2021/06/27 10:59:47;;;;;;;14.40;13.10;;;23.90;96.60;;;;;;5092242;28;20521;-69
2021/06/27 11:02:36;;;;;;;13.82;12.27;;;23.60;97.60;;;;;;5092827;28;20512;-69
2021/06/27 11:05:32;;;;;;;14.63;13.15;;;23.80;97.70;;;;;;5091546;28;20484;-68
2021/06/27 11:07:59;;;;;;;14.35;13.02;;;23.90;96.60;;;;;;5074696;28;20044;-68
2021/06/27 11:10:24;;;;;;;14.48;13.07;;;24.20;96.30;;;;;;5085448;28;20040;-68
2021/06/27 11:13:02;;;;;;;12.98;11.68;;;24.10;96.10;;;;;;5091351;28;20039;-68
2021/06/27 11:15:44;;;;;;;13.13;11.75;;;24.00;96.20;;;;;;5091819;28;20579;-68
2021/06/27 11:18:10;;;;;;;;;;;24.10;96.70;;;;;;5092541;28;20043;-68
2021/06/27 11:20:45;;;;;;;12.75;11.55;;;24.00;96.20;;;;;;5087738;28;20467;-68
2021/06/27 11:23:10;;;;;;;12.90;11.70;;;24.20;95.60;;;;;;5088103;28;20093;-68
2021/06/27 11:25:39;;;;;;;11.88;10.77;;;24.60;94.20;;;;;;5091474;28;20044;-68
2021/06/27 11:28:17;;;;;;;11.80;10.60;;;24.70;95.20;;;;;;5091188;28;20036;-68
2021/06/27 11:30:43;;;;;;;12.52;11.35;;;24.50;96.50;;;;;;5074172;28;20089;-68
2021/06/27 11:33:21;;;;;;;11.10;10.07;;;24.80;94.90;;;;;;5091897;28;20067;-68
2021/06/27 11:35:57;;;;;;;12.02;11.00;;;25.00;95.30;;;;;;5092318;28;20044;-68
2021/06/27 11:38:38;;;;;;;9.95;8.95;;;25.20;93.30;;;;;;5091651;28;20043;-68
2021/06/27 11:41:13;;;;;;;12.67;10.20;;;25.50;93.20;;;;;;5091207;28;20036;-68
2021/06/27 11:44:01;;;;;;;12.60;11.30;;;25.50;92.30;;;;;;5081790;28;20302;-67
2021/06/27 11:46:38;;;;;;;11.32;10.43;;;24.70;94.60;;;;;;5087369;28;20051;-68
2021/06/27 11:49:09;;;;;;;12.43;11.30;;;24.30;95.90;;;;;;5092107;28;20031;-68
2021/06/27 11:51:42;;;;;;;13.20;11.90;;;24.40;95.30;;;;;;5091730;28;20447;-67
2021/06/27 11:54:08;;;;;;;;;;;24.00;96.20;;;;;;5092689;28;20397;-68
2021/06/27 11:56:53;;;;;;;12.00;10.80;;;23.90;95.60;;;;;;5091495;28;19928;-69
2021/06/27 11:59:29;;;;;;;12.05;10.95;;;24.40;95.60;;;;;;5090653;28;20040;-68
2021/06/27 12:02:17;;;;;;;11.75;10.65;;;24.30;95.80;;;;;;5091829;28;20088;-68
2021/06/27 12:04:57;;;;;;;11.82;10.55;;;24.80;95.40;;;;;;5086138;28;20084;-69
2021/06/27 12:07:32;;;;;;;11.88;10.70;;;24.80;94.70;;;;;;5083725;28;20165;-69
2021/06/27 12:10:18;;;;;;;11.52;10.43;;;24.80;95.70;;;;;;5073349;28;20056;-69
2021/06/27 12:12:45;;;;;;;11.50;10.38;;;25.00;94.10;;;;;;5090813;28;20073;-68
2021/06/27 12:15:16;;;;;;;11.32;10.32;;;25.00;93.70;;;;;;5091271;28;20040;-68
2021/06/27 12:17:43;;;;;;;11.95;11.00;;;25.00;94.20;;;;;;5091038;28;20886;-69
2021/06/27 12:20:12;;;;;;;11.60;10.55;;;24.90;94.30;;;;;;5090794;28;20036;-68
2021/06/27 12:22:51;;;;;;;11.27;10.07;;;24.40;95.20;;;;;;5089547;28;20039;-69
2021/06/27 12:25:22;;;;;;;12.35;11.25;;;24.60;95.00;;;;;;5090758;28;20063;-68
2021/06/27 12:27:48;;;;;;;;;;;25.00;93.90;;;;;;5091677;28;20454;-68
2021/06/27 12:30:15;;;;;;;11.75;10.55;;;24.70;95.20;;;;;;5084737;28;20293;-68
2021/06/27 12:33:05;;;;;;;10.73;9.73;;;24.80;94.90;;;;;;5090261;28;20051;-68
2021/06/27 12:35:32;;;;;;;11.27;10.30;;;25.00;96.10;;;;;;5090308;28;20039;-69